Time;durP1;ratioP1;P1;durP2;ratioP2;P2;SDS_P1;SDS_P2;PMS_P1;PMS_P2;Temp;Humidity;BMP_temperature;BMP_pressure;BME280_temperature;BME280_humidity;BME280_pressure;Samples;Min_cycle;Max_cycle;Signal;HPM_P1;HPM_P2
2024/04/19 00:01:59;;;;;;;29.10;6.13;;;9.80;90.70;;;;;;5461826;26;19999;-58
2024/04/19 00:04:24;;;;;;;22.17;5.00;;;9.80;90.70;;;;;;5446947;26;19991;-58
2024/04/19 00:06:50;;;;;;;26.63;5.10;;;9.70;90.80;;;;;;5432678;26;20010;-58
2024/04/19 00:09:16;;;;;;;25.77;5.90;;;9.70;90.80;;;;;;5425646;26;20003;-58
2024/04/19 00:11:41;;;;;;;20.40;4.43;;;9.70;90.80;;;;;;5440293;26;20018;-58
2024/04/19 00:14:07;;;;;;;18.85;4.78;;;9.70;90.80;;;;;;5440088;26;20011;-58
2024/04/19 00:16:33;;;;;;;18.23;4.50;;;9.70;90.80;;;;;;5424009;26;20008;-58
2024/04/19 00:18:58;;;;;;;20.42;4.70;;;9.70;90.80;;;;;;5427029;26;20003;-58
2024/04/19 00:21:24;;;;;;;19.15;4.78;;;9.60;91.10;;;;;;5427164;26;20004;-58
2024/04/19 00:23:49;;;;;;;24.17;4.40;;;9.60;90.80;;;;;;5429128;26;19999;-58
2024/04/19 00:26:15;;;;;;;13.65;4.22;;;9.60;90.80;;;;;;5429091;26;20016;-58
2024/04/19 00:28:41;;;;;;;13.35;4.25;;;9.60;90.80;;;;;;5429111;26;20406;-58
2024/04/19 00:31:06;;;;;;;17.92;4.00;;;9.50;90.80;;;;;;5460590;26;19999;-58
2024/04/19 00:33:32;;;;;;;17.30;4.72;;;9.50;90.80;;;;;;5483667;26;20009;-58
2024/04/19 00:35:57;;;;;;;17.90;5.18;;;9.50;90.80;;;;;;5426917;26;20012;-58
2024/04/19 00:38:23;;;;;;;19.52;4.03;;;9.50;90.80;;;;;;5428881;26;19995;-58
2024/04/19 00:40:49;;;;;;;12.45;4.13;;;9.50;90.80;;;;;;5429026;26;19996;-58
2024/04/19 00:43:14;;;;;;;21.30;4.65;;;9.50;90.90;;;;;;5428736;26;19991;-58
2024/04/19 00:45:40;;;;;;;16.75;4.55;;;9.40;90.90;;;;;;5428733;26;20377;-58
2024/04/19 00:48:21;;;;;;;15.82;3.95;;;9.40;90.90;;;;;;5487181;26;19999;-58
2024/04/19 00:50:48;;;;;;;18.42;4.07;;;9.40;90.90;;;;;;5478139;26;20010;-58
2024/04/19 00:53:20;;;;;;;12.25;3.78;;;9.40;90.90;;;;;;5456866;26;20318;-59
2024/04/19 00:55:46;;;;;;;13.77;4.05;;;9.40;90.90;;;;;;5428789;26;20016;-58
2024/04/19 00:58:12;;;;;;;21.33;3.78;;;9.40;90.90;;;;;;5463268;26;20009;-58
2024/04/19 01:00:37;;;;;;;9.27;3.30;;;9.40;90.90;;;;;;5458133;26;20007;-58
2024/04/19 01:03:03;;;;;;;9.40;3.67;;;9.40;90.90;;;;;;5479532;26;20360;-58
2024/04/19 01:05:29;;;;;;;14.57;3.70;;;9.30;90.90;;;;;;5452477;26;20002;-59
2024/04/19 01:07:54;;;;;;;14.55;3.58;;;9.30;90.90;;;;;;5465316;26;20030;-58
2024/04/19 01:10:20;;;;;;;12.90;3.50;;;9.30;90.90;;;;;;5426217;26;20011;-58
2024/04/19 01:12:45;;;;;;;8.77;3.70;;;9.30;90.90;;;;;;5396813;26;20019;-58
2024/04/19 01:15:18;;;;;;;13.88;3.78;;;9.30;90.90;;;;;;5435047;26;20007;-58
2024/04/19 01:17:44;;;;;;;12.27;3.25;;;9.20;90.90;;;;;;5434281;26;20022;-58
2024/04/19 01:20:09;;;;;;;12.95;3.65;;;9.20;90.90;;;;;;5476008;26;20008;-58
2024/04/19 01:22:35;;;;;;;8.50;3.42;;;9.20;91.00;;;;;;5426534;26;20070;-58
2024/04/19 01:25:01;;;;;;;11.55;3.65;;;9.20;91.00;;;;;;5455946;26;19999;-58
2024/04/19 01:27:26;;;;;;;13.40;3.40;;;9.20;91.00;;;;;;5426404;26;19995;-58
2024/04/19 01:29:52;;;;;;;8.02;3.58;;;9.10;91.00;;;;;;5426800;26;20446;-58
2024/04/19 01:32:18;;;;;;;10.02;3.47;;;9.10;91.00;;;;;;5427994;26;19999;-58
2024/04/19 01:34:43;;;;;;;10.57;3.50;;;9.10;91.00;;;;;;5432909;26;20010;-58
2024/04/19 01:37:09;;;;;;;8.75;3.50;;;9.10;91.10;;;;;;5427842;26;20415;-58
2024/04/19 01:39:34;;;;;;;8.20;3.03;;;9.10;91.00;;;;;;5486134;26;20027;-58
2024/04/19 01:42:00;;;;;;;15.18;3.95;;;9.10;91.10;;;;;;5426142;26;20000;-57
2024/04/19 01:44:26;;;;;;;9.98;3.53;;;9.10;91.10;;;;;;5435276;26;19999;-58
2024/04/19 01:46:51;;;;;;;13.05;3.25;;;9.10;91.10;;;;;;5428008;26;20066;-57
2024/04/19 01:49:17;;;;;;;10.70;4.05;;;9.00;91.10;;;;;;5427881;26;19999;-58
2024/04/19 01:51:43;;;;;;;7.32;3.72;;;9.10;91.10;;;;;;5486027;26;20117;-58
2024/04/19 01:54:08;;;;;;;6.80;2.85;;;9.00;91.10;;;;;;5427854;26;19999;-58
2024/04/19 01:56:34;;;;;;;9.10;3.03;;;9.00;91.20;;;;;;5427701;26;20418;-58
2024/04/19 01:58:59;;;;;;;11.40;3.35;;;9.00;91.20;;;;;;5486169;26;19998;-58
2024/04/19 02:01:26;;;;;;;9.82;3.40;;;8.90;91.20;;;;;;5495066;26;20154;-58
2024/04/19 02:03:52;;;;;;;9.35;3.22;;;8.90;91.20;;;;;;5425822;26;19991;-58
2024/04/19 02:06:17;;;;;;;8.18;3.25;;;8.90;91.30;;;;;;5427704;26;19996;-58
2024/04/19 02:08:43;;;;;;;8.57;2.90;;;8.90;91.30;;;;;;5427677;26;20007;-58
2024/04/19 02:11:09;;;;;;;5.35;3.20;;;8.90;91.30;;;;;;5442651;26;19995;-58
2024/04/19 02:13:34;;;;;;;6.20;3.35;;;8.90;91.30;;;;;;5461685;26;20009;-58
2024/04/19 02:16:00;;;;;;;8.77;2.78;;;8.90;91.30;;;;;;5461655;26;19994;-58
2024/04/19 02:18:26;;;;;;;7.65;3.30;;;8.90;91.30;;;;;;5461527;26;20371;-58
2024/04/19 02:20:51;;;;;;;5.07;3.00;;;8.80;91.30;;;;;;5435116;26;19999;-58
2024/04/19 02:23:43;;;;;;;5.38;3.03;;;8.80;91.30;;;;;;5485918;26;19999;-58
2024/04/19 02:26:09;;;;;;;6.25;3.03;;;8.80;91.30;;;;;;5475331;26;19996;-58
2024/04/19 02:31:21;;;;;;;9.57;3.80;;;8.80;91.30;;;;;;5462024;26;20078;-58
2024/04/19 02:33:47;;;;;;;5.43;2.40;;;8.80;91.40;;;;;;5463318;26;19999;-58
2024/04/19 02:36:13;;;;;;;4.97;2.72;;;8.70;91.30;;;;;;5461506;26;20014;-58
2024/04/19 02:38:38;;;;;;;7.57;3.28;;;8.70;91.30;;;;;;5463135;26;20003;-58
2024/04/19 02:41:05;;;;;;;9.80;3.50;;;8.70;91.30;;;;;;5461240;26;19999;-58
2024/04/19 02:43:30;;;;;;;6.00;2.80;;;8.70;91.30;;;;;;5463176;26;20022;-58
2024/04/19 02:45:56;;;;;;;6.05;3.03;;;8.70;91.30;;;;;;5491825;26;20311;-58
2024/04/19 02:48:22;;;;;;;7.38;3.22;;;8.70;91.40;;;;;;5428054;26;19995;-58
2024/04/19 02:50:49;;;;;;;7.65;2.80;;;8.70;91.40;;;;;;5427122;26;19999;-58
2024/04/19 02:53:15;;;;;;;5.55;2.78;;;8.70;91.40;;;;;;5454562;26;20049;-58
2024/04/19 02:55:41;;;;;;;6.35;3.28;;;8.60;91.40;;;;;;5490866;26;20023;-58
2024/04/19 02:58:06;;;;;;;7.43;3.05;;;8.60;91.40;;;;;;5427136;26;20110;-59
2024/04/19 03:00:32;;;;;;;6.60;2.97;;;8.60;91.50;;;;;;5454756;26;19996;-58
2024/04/19 03:02:58;;;;;;;3.80;2.42;;;8.60;91.80;;;;;;5427493;26;20000;-58
2024/04/19 03:05:23;;;;;;;6.72;3.17;;;8.60;91.50;;;;;;5423115;26;20010;-58
2024/04/19 03:07:49;;;;;;;8.15;3.13;;;8.60;91.50;;;;;;5426808;26;20069;-58
2024/04/19 03:10:15;;;;;;;7.03;2.88;;;8.60;91.50;;;;;;5426735;26;19992;-58
2024/04/19 03:12:40;;;;;;;4.47;2.90;;;8.60;91.50;;;;;;5426958;26;20035;-58
2024/04/19 03:15:06;;;;;;;4.97;3.40;;;8.50;91.50;;;;;;5454569;26;20072;-58
2024/04/19 03:17:32;;;;;;;5.88;3.25;;;8.50;91.50;;;;;;5430689;26;20450;-58
2024/04/19 03:19:58;;;;;;;5.18;3.03;;;8.50;91.50;;;;;;5440194;26;20006;-59
2024/04/19 03:22:24;;;;;;;4.97;2.83;;;8.50;91.60;;;;;;5455845;26;20013;-58
2024/04/19 03:24:49;;;;;;;3.30;2.83;;;8.50;91.50;;;;;;5460643;26;19991;-58
2024/04/19 03:27:15;;;;;;;6.30;2.70;;;8.50;91.60;;;;;;5460580;26;20010;-58
2024/04/19 03:29:41;;;;;;;6.43;2.90;;;8.50;91.60;;;;;;5462528;26;20108;-58
2024/04/19 03:32:06;;;;;;;6.90;2.90;;;8.50;91.50;;;;;;5448603;26;19995;-60
2024/04/19 03:34:32;;;;;;;5.20;2.85;;;8.50;91.60;;;;;;5424491;26;19995;-58
2024/04/19 03:36:57;;;;;;;7.32;3.03;;;8.50;91.50;;;;;;5426400;26;19999;-57
2024/04/19 03:39:24;;;;;;;4.22;2.75;;;8.50;91.60;;;;;;5426365;26;20002;-59
2024/04/19 03:41:51;;;;;;;4.85;2.90;;;8.50;91.60;;;;;;5475989;26;20017;-58
2024/04/19 03:47:01;;;;;;;6.28;3.13;;;8.40;91.70;;;;;;5455789;26;20006;-58
2024/04/19 03:49:26;;;;;;;5.05;2.97;;;8.40;91.70;;;;;;5458822;26;19991;-58
2024/04/19 03:51:55;;;;;;;3.40;2.65;;;8.40;91.70;;;;;;5426987;26;20011;-58
2024/04/19 03:54:20;;;;;;;5.25;2.60;;;8.40;91.70;;;;;;5428693;26;20010;-58
2024/04/19 03:56:46;;;;;;;3.67;2.97;;;8.40;91.70;;;;;;5427640;26;20008;-58
2024/04/19 03:59:11;;;;;;;4.72;2.80;;;8.40;91.70;;;;;;5438980;26;20006;-58
2024/04/19 04:01:37;;;;;;;3.47;2.38;;;8.40;91.70;;;;;;5463536;26;19998;-58
2024/04/19 04:04:03;;;;;;;4.40;2.78;;;8.40;91.70;;;;;;5465118;26;20045;-58
2024/04/19 04:06:28;;;;;;;4.15;2.95;;;8.40;91.70;;;;;;5463341;26;19991;-58
2024/04/19 04:08:54;;;;;;;3.40;3.08;;;8.40;91.70;;;;;;5464750;26;19995;-58
2024/04/19 04:11:20;;;;;;;3.80;2.70;;;8.40;91.70;;;;;;5463495;26;19994;-58
2024/04/19 04:13:45;;;;;;;3.95;3.05;;;8.40;91.80;;;;;;5459650;26;19994;-58
2024/04/19 04:16:11;;;;;;;6.53;3.00;;;8.40;91.80;;;;;;5425835;26;20119;-58
2024/04/19 04:18:36;;;;;;;4.25;2.97;;;8.30;91.80;;;;;;5456534;26;20014;-58
2024/04/19 04:21:02;;;;;;;6.70;3.08;;;8.40;91.80;;;;;;5457337;26;20045;-58
2024/04/19 04:23:29;;;;;;;6.97;3.00;;;8.30;91.80;;;;;;5468531;26;20010;-58
2024/04/19 04:25:55;;;;;;;4.07;2.88;;;8.30;91.80;;;;;;5427011;26;20414;-58
2024/04/19 04:28:21;;;;;;;8.50;3.60;;;8.30;91.80;;;;;;5429161;26;20031;-58
2024/04/19 04:30:46;;;;;;;3.45;2.97;;;8.30;91.80;;;;;;5429033;26;20008;-58
2024/04/19 04:33:12;;;;;;;6.88;3.47;;;8.30;91.80;;;;;;5457160;26;20015;-58
2024/04/19 04:35:38;;;;;;;4.90;2.78;;;8.30;91.80;;;;;;5427430;26;19996;-58
2024/04/19 04:38:04;;;;;;;4.35;2.75;;;8.30;91.80;;;;;;5429052;26;19995;-58
2024/04/19 04:40:32;;;;;;;6.75;3.67;;;8.40;92.00;;;;;;5457026;26;20322;-58
2024/04/19 04:43:00;;;;;;;4.25;3.03;;;8.40;91.70;;;;;;5486691;26;19995;-58
2024/04/19 04:45:27;;;;;;;6.13;2.88;;;8.40;91.70;;;;;;5486849;26;20004;-58
2024/04/19 04:47:53;;;;;;;9.20;3.40;;;8.40;91.70;;;;;;5428988;26;19991;-58
2024/04/19 04:50:19;;;;;;;12.25;3.58;;;8.40;91.70;;;;;;5486981;26;20056;-58
2024/04/19 04:52:45;;;;;;;16.13;3.85;;;8.40;91.80;;;;;;5487245;26;20000;-58
2024/04/19 04:55:11;;;;;;;20.67;4.47;;;8.40;91.90;;;;;;5428507;26;20006;-58
2024/04/19 04:57:37;;;;;;;24.75;5.20;;;8.40;91.80;;;;;;5445009;26;20020;-58
2024/04/19 05:00:05;;;;;;;26.35;4.85;;;8.40;91.90;;;;;;5494112;26;20010;-58
2024/04/19 05:02:30;;;;;;;24.42;4.40;;;8.40;92.10;;;;;;5459528;26;19991;-58
2024/04/19 05:04:56;;;;;;;21.40;4.97;;;8.40;91.90;;;;;;5459965;26;19999;-58
2024/04/19 05:07:23;;;;;;;16.40;4.57;;;8.40;91.90;;;;;;5463716;26;19990;-58
2024/04/19 05:09:51;;;;;;;26.05;5.60;;;8.40;91.90;;;;;;5462432;26;19994;-58
2024/04/19 05:12:17;;;;;;;18.40;5.35;;;8.40;91.90;;;;;;5468023;26;20011;-58
2024/04/19 05:14:42;;;;;;;44.25;8.40;;;8.50;91.90;;;;;;5428539;26;19996;-58
2024/04/19 05:17:08;;;;;;;50.60;9.40;;;8.40;91.90;;;;;;5428035;26;20422;-58
2024/04/19 05:19:34;;;;;;;54.92;8.98;;;8.40;92.20;;;;;;5425585;26;20521;-58
2024/04/19 05:21:59;;;;;;;53.67;9.20;;;8.40;92.00;;;;;;5460058;26;20077;-58
2024/04/19 05:24:25;;;;;;;56.78;8.65;;;8.50;92.20;;;;;;5463864;26;20069;-58
2024/04/19 05:26:51;;;;;;;60.72;8.85;;;8.40;92.10;;;;;;5462087;26;19999;-58
2024/04/19 05:29:17;;;;;;;59.97;8.88;;;8.50;92.10;;;;;;5461317;26;20004;-58
2024/04/19 05:31:42;;;;;;;45.67;8.45;;;8.50;92.10;;;;;;5438497;26;19999;-58
2024/04/19 05:34:08;;;;;;;38.03;7.47;;;8.50;92.10;;;;;;5453987;26;20053;-58
2024/04/19 05:36:34;;;;;;;50.05;7.38;;;8.50;92.10;;;;;;5426170;26;20332;-58
2024/04/19 05:38:59;;;;;;;50.50;7.80;;;8.50;92.20;;;;;;5454311;26;19988;-58
2024/04/19 05:41:25;;;;;;;40.03;6.85;;;8.50;92.20;;;;;;5424487;26;19991;-58
2024/04/19 05:43:50;;;;;;;41.67;8.35;;;8.50;92.30;;;;;;5455803;26;20370;-58
2024/04/19 05:46:16;;;;;;;48.88;7.35;;;8.50;92.30;;;;;;5427276;26;20395;-58
2024/04/19 05:48:42;;;;;;;31.77;7.00;;;8.50;92.30;;;;;;5470399;26;19999;-58
2024/04/19 05:51:07;;;;;;;42.50;8.10;;;8.50;92.20;;;;;;5425846;26;20003;-58
2024/04/19 05:53:33;;;;;;;39.00;7.70;;;8.50;92.10;;;;;;5472576;26;20061;-58
2024/04/19 05:55:59;;;;;;;38.63;6.45;;;8.50;92.10;;;;;;5431224;26;19999;-58
2024/04/19 05:58:24;;;;;;;38.85;7.47;;;8.50;92.10;;;;;;5427743;26;20014;-58
2024/04/19 06:00:50;;;;;;;24.83;5.65;;;8.50;92.00;;;;;;5428231;26;20022;-58
2024/04/19 06:03:16;;;;;;;30.95;6.93;;;8.50;92.00;;;;;;5425825;26;20143;-58
2024/04/19 06:05:44;;;;;;;22.70;5.60;;;8.50;92.00;;;;;;5427764;26;19995;-58
2024/04/19 06:08:11;;;;;;;32.30;5.72;;;8.40;91.90;;;;;;5427543;26;20476;-58
2024/04/19 06:10:36;;;;;;;20.83;6.20;;;8.40;91.90;;;;;;5427781;26;20000;-58
2024/04/19 06:13:02;;;;;;;20.83;4.88;;;8.40;91.90;;;;;;5446030;26;20042;-58
2024/04/19 06:15:28;;;;;;;29.00;6.00;;;8.40;91.90;;;;;;5495415;26;20014;-58
2024/04/19 06:17:53;;;;;;;18.25;4.90;;;8.40;91.90;;;;;;5496515;26;20021;-58
2024/04/19 06:20:19;;;;;;;14.88;4.97;;;8.40;91.90;;;;;;5494206;26;19990;-58
2024/04/19 06:22:44;;;;;;;13.93;5.53;;;8.40;92.20;;;;;;5494805;26;20017;-58
2024/04/19 06:25:10;;;;;;;16.27;4.45;;;8.40;91.80;;;;;;5471170;26;20013;-59
2024/04/19 06:27:36;;;;;;;15.65;5.00;;;8.40;91.80;;;;;;5450910;26;20005;-58
2024/04/19 06:30:01;;;;;;;20.33;4.68;;;8.40;91.80;;;;;;5453951;26;19995;-58
2024/04/19 06:32:27;;;;;;;22.02;4.68;;;8.40;91.80;;;;;;5449029;26;20007;-58
2024/04/19 06:34:53;;;;;;;23.13;5.57;;;8.40;91.80;;;;;;5457648;26;19999;-58
2024/04/19 06:37:18;;;;;;;15.63;5.15;;;8.40;91.80;;;;;;5458881;26;19995;-59
2024/04/19 06:39:44;;;;;;;22.83;4.47;;;8.40;91.80;;;;;;5460844;26;19991;-59
2024/04/19 06:42:09;;;;;;;20.70;5.35;;;8.50;91.70;;;;;;5430477;26;20017;-58
2024/04/19 06:44:35;;;;;;;20.83;4.97;;;8.40;91.70;;;;;;5461041;26;19995;-58
2024/04/19 06:47:01;;;;;;;28.77;5.20;;;8.50;91.70;;;;;;5462707;26;19994;-58
2024/04/19 06:49:26;;;;;;;24.77;5.30;;;8.50;91.70;;;;;;5441679;26;20000;-58
2024/04/19 06:51:52;;;;;;;26.38;5.53;;;8.50;91.70;;;;;;5460489;26;20006;-58
2024/04/19 06:54:17;;;;;;;22.38;4.68;;;8.50;91.60;;;;;;5453022;26;20095;-58
2024/04/19 06:56:49;;;;;;;30.48;6.00;;;8.50;91.60;;;;;;5458566;26;20434;-59
2024/04/19 06:59:15;;;;;;;35.35;6.85;;;8.50;91.60;;;;;;5446618;26;19998;-61
2024/04/19 07:01:40;;;;;;;23.40;5.03;;;8.60;91.60;;;;;;5465802;26;20017;-61
2024/04/19 07:04:06;;;;;;;32.90;6.28;;;8.60;91.60;;;;;;5455602;26;19995;-61
2024/04/19 07:06:32;;;;;;;30.35;5.40;;;8.60;91.60;;;;;;5445243;26;20000;-61
2024/04/19 07:08:57;;;;;;;57.70;8.48;;;8.60;91.60;;;;;;5451177;26;20003;-61
2024/04/19 07:11:23;;;;;;;110.28;12.50;;;8.60;91.70;;;;;;5434557;26;19998;-60
2024/04/19 07:13:48;;;;;;;67.20;9.40;;;8.70;91.80;;;;;;5392667;26;20007;-61
2024/04/19 07:16:14;;;;;;;49.28;8.63;;;8.70;91.90;;;;;;5448538;26;20015;-61
2024/04/19 07:18:40;;;;;;;52.67;9.88;;;8.70;91.80;;;;;;5455949;26;20017;-61
2024/04/19 07:21:06;;;;;;;49.78;9.52;;;8.70;91.80;;;;;;5459125;26;20429;-60
2024/04/19 07:23:31;;;;;;;79.47;10.43;;;8.70;91.80;;;;;;5433480;26;20009;-60
2024/04/19 07:25:57;;;;;;;63.65;7.88;;;8.70;91.80;;;;;;5461505;26;20009;-61
2024/04/19 07:28:22;;;;;;;52.17;8.02;;;8.80;91.90;;;;;;5458454;26;20017;-60
2024/04/19 07:30:49;;;;;;;57.75;7.60;;;8.90;91.90;;;;;;5396622;26;20446;-61
2024/04/19 07:33:14;;;;;;;55.13;7.90;;;8.90;91.80;;;;;;5429412;26;20003;-60
2024/04/19 07:35:40;;;;;;;77.70;9.52;;;8.90;91.80;;;;;;5466397;26;20409;-60
2024/04/19 07:38:06;;;;;;;44.20;6.80;;;9.00;91.80;;;;;;5467266;26;20009;-61
2024/04/19 07:40:34;;;;;;;64.95;9.55;;;8.90;91.80;;;;;;5468202;26;19998;-60
2024/04/19 07:43:00;;;;;;;84.13;11.18;;;9.00;91.80;;;;;;5407109;26;20120;-61
2024/04/19 07:45:26;;;;;;;66.30;10.10;;;9.00;91.80;;;;;;5429424;26;20003;-60
2024/04/19 07:47:52;;;;;;;112.78;11.98;;;9.10;91.90;;;;;;5397516;26;20010;-61
2024/04/19 07:50:18;;;;;;;101.40;11.70;;;9.10;91.90;;;;;;5452777;26;20635;-61
2024/04/19 07:52:45;;;;;;;98.10;12.05;;;9.10;91.80;;;;;;5466868;26;20022;-61
2024/04/19 07:55:11;;;;;;;78.63;9.63;;;9.20;91.80;;;;;;5460335;26;20015;-60
2024/04/19 07:57:37;;;;;;;84.25;11.50;;;9.20;91.80;;;;;;5479679;26;20078;-60
2024/04/19 08:00:04;;;;;;;88.60;11.48;;;9.20;91.70;;;;;;5425700;26;20081;-61
2024/04/19 08:02:30;;;;;;;104.90;12.35;;;9.20;91.70;;;;;;5421620;26;20007;-61
2024/04/19 08:04:56;;;;;;;74.63;10.73;;;9.30;91.70;;;;;;5393504;26;20015;-61
2024/04/19 08:07:25;;;;;;;91.53;11.60;;;9.30;91.90;;;;;;5420519;26;19996;-60
2024/04/19 08:09:53;;;;;;;87.43;9.93;;;9.30;91.60;;;;;;5457873;26;19995;-61
2024/04/19 08:12:19;;;;;;;96.15;10.60;;;9.30;91.50;;;;;;5476173;26;19998;-61
2024/04/19 08:14:45;;;;;;;139.68;16.70;;;9.40;91.40;;;;;;5428744;26;20019;-61
2024/04/19 08:17:11;;;;;;;128.13;14.52;;;9.40;91.50;;;;;;5446946;26;20132;-61
2024/04/19 08:19:36;;;;;;;113.47;14.75;;;9.40;91.60;;;;;;5477431;26;20025;-60
2024/04/19 08:22:02;;;;;;;140.23;15.30;;;9.40;91.50;;;;;;5454173;26;20061;-61
2024/04/19 08:24:28;;;;;;;116.75;15.77;;;9.50;91.50;;;;;;5462650;26;19994;-61
2024/04/19 08:26:53;;;;;;;125.20;13.98;;;9.50;91.40;;;;;;5386924;26;19996;-61
2024/04/19 08:29:19;;;;;;;99.65;13.40;;;9.60;91.30;;;;;;5448883;26;20017;-61
2024/04/19 08:31:45;;;;;;;95.07;12.52;;;9.60;91.20;;;;;;5451794;26;20025;-60
2024/04/19 08:34:12;;;;;;;137.80;15.55;;;9.60;91.10;;;;;;5422492;26;20003;-61
2024/04/19 08:36:37;;;;;;;83.60;11.38;;;9.60;91.00;;;;;;5420628;26;20038;-61
2024/04/19 08:39:03;;;;;;;100.43;12.10;;;9.70;91.10;;;;;;5448583;26;20015;-61
2024/04/19 08:41:30;;;;;;;101.32;13.15;;;9.70;91.00;;;;;;5456515;26;20094;-60
2024/04/19 08:43:58;;;;;;;107.72;14.00;;;9.80;91.20;;;;;;5475439;26;19998;-61
2024/04/19 08:46:24;;;;;;;118.95;14.65;;;9.80;90.80;;;;;;5408133;26;20113;-61
2024/04/19 08:48:49;;;;;;;110.68;14.13;;;9.80;90.70;;;;;;5466397;26;20010;-61
2024/04/19 08:51:15;;;;;;;108.05;12.23;;;9.80;90.60;;;;;;5462154;26;20460;-61
2024/04/19 08:53:42;;;;;;;80.80;11.48;;;9.90;90.60;;;;;;5435958;26;19996;-61
2024/04/19 08:56:08;;;;;;;92.32;12.30;;;9.90;90.50;;;;;;5417072;26;19998;-61
2024/04/19 08:58:34;;;;;;;95.88;12.55;;;9.90;90.40;;;;;;5440569;26;20021;-61
2024/04/19 09:01:00;;;;;;;110.38;15.52;;;9.90;90.20;;;;;;5425787;26;20125;-60
2024/04/19 09:03:26;;;;;;;175.38;19.33;;;10.00;90.00;;;;;;5459641;26;20085;-61
2024/04/19 09:05:51;;;;;;;168.63;18.08;;;10.00;89.90;;;;;;5429634;26;19998;-61
2024/04/19 09:08:17;;;;;;;166.27;18.55;;;10.00;89.60;;;;;;5429604;26;20060;-61
2024/04/19 09:10:43;;;;;;;105.72;13.10;;;10.10;89.60;;;;;;5405629;26;20406;-60
2024/04/19 09:13:08;;;;;;;94.93;12.10;;;10.10;89.60;;;;;;5452447;26;20065;-61
2024/04/19 09:15:36;;;;;;;95.63;13.85;;;10.20;89.10;;;;;;5438266;26;20068;-60
2024/04/19 09:18:03;;;;;;;65.10;10.13;;;10.20;88.80;;;;;;5451919;26;20037;-61
2024/04/19 09:20:29;;;;;;;78.95;9.75;;;10.20;88.80;;;;;;5438939;26;19995;-60
2024/04/19 09:22:55;;;;;;;92.10;11.65;;;10.20;88.60;;;;;;5462877;26;20022;-61
2024/04/19 09:25:20;;;;;;;66.82;10.10;;;10.20;88.60;;;;;;5461771;26;20001;-61
2024/04/19 09:27:46;;;;;;;101.18;11.93;;;10.30;88.40;;;;;;5455093;26;20485;-61
2024/04/19 09:30:14;;;;;;;55.65;8.45;;;10.30;88.20;;;;;;5408703;26;20004;-61
2024/04/19 09:32:40;;;;;;;69.82;9.98;;;10.30;87.80;;;;;;5424432;26;20003;-61
2024/04/19 09:35:05;;;;;;;56.17;9.45;;;10.40;87.60;;;;;;5459709;26;20377;-61
2024/04/19 09:37:31;;;;;;;85.93;11.35;;;10.40;87.50;;;;;;5479949;26;20003;-61
2024/04/19 09:39:57;;;;;;;48.20;7.43;;;10.50;87.60;;;;;;5456627;26;19998;-61
2024/04/19 09:42:23;;;;;;;50.58;7.53;;;10.40;87.30;;;;;;5457582;26;20010;-63
2024/04/19 09:44:50;;;;;;;70.85;9.98;;;10.50;86.90;;;;;;5458724;26;20003;-61
2024/04/19 09:47:16;;;;;;;92.25;11.80;;;10.50;86.70;;;;;;5423853;26;19998;-61
2024/04/19 09:49:44;;;;;;;61.97;9.30;;;10.50;86.80;;;;;;5438558;26;20195;-61
2024/04/19 09:52:19;;;;;;;93.45;11.90;;;10.50;86.60;;;;;;5449886;26;20010;-61
2024/04/19 09:54:46;;;;;;;49.50;8.48;;;10.60;86.50;;;;;;5400264;26;20342;-61
2024/04/19 09:57:11;;;;;;;106.03;12.35;;;10.70;86.60;;;;;;5469547;26;19999;-61
2024/04/19 09:59:37;;;;;;;138.07;16.77;;;10.70;86.90;;;;;;5455231;26;20051;-60
2024/04/19 10:02:03;;;;;;;126.30;14.93;;;10.70;86.90;;;;;;5457909;26;20007;-61
2024/04/19 10:04:28;;;;;;;71.53;10.15;;;10.80;86.80;;;;;;5432105;26;20007;-61
2024/04/19 10:06:57;;;;;;;132.18;14.80;;;10.80;86.60;;;;;;5437720;26;20441;-61
2024/04/19 10:09:25;;;;;;;107.78;14.15;;;10.80;86.30;;;;;;5425744;26;19998;-61
2024/04/19 10:11:52;;;;;;;148.43;17.05;;;10.90;86.30;;;;;;5441262;26;20086;-61
2024/04/19 10:14:18;;;;;;;131.73;14.82;;;11.00;86.60;;;;;;5483108;26;20015;-61
2024/04/19 10:16:43;;;;;;;227.80;23.13;;;11.00;86.50;;;;;;5444362;26;20014;-61
2024/04/19 10:19:11;;;;;;;183.77;18.40;;;11.00;86.50;;;;;;5435846;26;19999;-61
2024/04/19 10:21:39;;;;;;;201.52;19.70;;;11.00;86.50;;;;;;5415277;26;20019;-61
2024/04/19 10:24:16;;;;;;;196.07;20.92;;;11.00;86.40;;;;;;5441851;26;20010;-61
2024/04/19 10:26:43;;;;;;;155.23;16.45;;;11.00;86.20;;;;;;5455834;26;20074;-61
2024/04/19 10:29:09;;;;;;;124.15;15.07;;;11.10;86.20;;;;;;5455709;26;19999;-61
2024/04/19 10:31:34;;;;;;;172.27;17.88;;;11.10;85.90;;;;;;5466210;26;20003;-61
2024/04/19 10:34:00;;;;;;;161.23;19.10;;;11.10;85.90;;;;;;5428725;26;19999;-61
2024/04/19 10:36:33;;;;;;;165.70;19.05;;;11.10;85.80;;;;;;5414775;26;20007;-61
2024/04/19 10:38:59;;;;;;;175.30;19.48;;;11.20;85.80;;;;;;5457739;26;20093;-61
2024/04/19 10:41:24;;;;;;;177.07;19.88;;;11.20;86.00;;;;;;5437148;26;20003;-62
2024/04/19 10:43:52;;;;;;;153.93;18.50;;;11.20;86.00;;;;;;5456848;26;20002;-61
2024/04/19 10:46:18;;;;;;;224.57;23.13;;;11.20;86.10;;;;;;5447604;26;20064;-59
2024/04/19 10:48:44;;;;;;;120.03;16.65;;;11.30;86.20;;;;;;5419416;26;20093;-61
2024/04/19 10:51:13;;;;;;;143.20;16.30;;;11.30;85.70;;;;;;5438234;26;19999;-61
2024/04/19 10:53:39;;;;;;;138.82;17.23;;;11.30;85.40;;;;;;5438825;26;19999;-61
2024/04/19 10:56:05;;;;;;;168.15;18.98;;;11.30;85.80;;;;;;5443120;26;20003;-60
2024/04/19 10:58:31;;;;;;;159.63;16.95;;;11.30;85.30;;;;;;5415343;26;20122;-61
2024/04/19 11:00:56;;;;;;;157.70;18.17;;;11.30;85.20;;;;;;5495450;26;20025;-61
2024/04/19 11:03:23;;;;;;;127.50;17.17;;;11.30;85.30;;;;;;5442644;26;20089;-61
2024/04/19 11:05:48;;;;;;;188.43;20.05;;;11.30;85.50;;;;;;5407961;26;19995;-61
2024/04/19 11:08:14;;;;;;;204.80;22.25;;;11.30;85.70;;;;;;5405903;26;20015;-61
2024/04/19 11:10:40;;;;;;;154.80;19.42;;;11.30;86.00;;;;;;5448400;26;19998;-61
2024/04/19 11:13:06;;;;;;;133.10;16.23;;;11.30;85.80;;;;;;5450752;26;19995;-61
2024/04/19 11:15:32;;;;;;;208.63;24.42;;;11.30;85.90;;;;;;5466459;26;20002;-61
2024/04/19 11:17:57;;;;;;;155.32;22.15;;;11.30;85.80;;;;;;5414145;26;20005;-61
2024/04/19 11:20:23;;;;;;;199.00;23.58;;;11.40;85.90;;;;;;5461753;26;20097;-61
2024/04/19 11:22:49;;;;;;;246.82;27.55;;;11.40;85.90;;;;;;5461329;26;20001;-60
2024/04/19 11:25:15;;;;;;;198.93;24.05;;;11.50;86.10;;;;;;5417797;26;20010;-61
2024/04/19 11:27:40;;;;;;;161.18;20.80;;;11.50;86.40;;;;;;5440481;26;20083;-61
2024/04/19 11:30:06;;;;;;;168.27;21.33;;;11.50;86.40;;;;;;5449090;26;20091;-59
2024/04/19 11:32:35;;;;;;;203.10;22.98;;;11.50;86.40;;;;;;5441458;26;20019;-57
2024/04/19 11:35:01;;;;;;;177.57;19.00;;;11.60;86.20;;;;;;5453212;26;20010;-58
2024/04/19 11:37:27;;;;;;;141.65;17.15;;;11.60;86.30;;;;;;5409424;26;20353;-59
2024/04/19 11:39:52;;;;;;;163.02;20.17;;;11.60;86.10;;;;;;5488936;26;20410;-59
2024/04/19 11:42:20;;;;;;;164.73;18.35;;;11.60;86.80;;;;;;5423508;26;20065;-58
2024/04/19 11:44:46;;;;;;;183.80;18.23;;;11.60;86.50;;;;;;5419228;26;20056;-58
2024/04/19 11:47:11;;;;;;;142.23;17.48;;;11.60;86.30;;;;;;5408359;26;20011;-58
2024/04/19 11:49:37;;;;;;;137.40;17.23;;;11.60;86.00;;;;;;5424826;26;20031;-58
2024/04/19 11:52:04;;;;;;;128.27;16.05;;;11.60;85.90;;;;;;5436328;26;19998;-58
2024/04/19 11:54:31;;;;;;;127.68;15.20;;;11.60;85.90;;;;;;5464335;26;20007;-58
2024/04/19 11:56:58;;;;;;;101.55;14.50;;;11.60;85.80;;;;;;5458906;26;20020;-58
2024/04/19 11:59:23;;;;;;;127.25;18.15;;;11.60;85.80;;;;;;5426094;26;19991;-58
2024/04/19 12:01:50;;;;;;;153.95;17.42;;;11.60;85.80;;;;;;5457117;26;19999;-58
2024/04/19 12:04:17;;;;;;;126.35;15.43;;;11.60;85.90;;;;;;5452893;26;20019;-58
2024/04/19 12:06:42;;;;;;;122.75;16.35;;;11.60;85.90;;;;;;5421041;26;20052;-58
2024/04/19 12:09:08;;;;;;;137.95;18.83;;;11.60;86.00;;;;;;5448583;26;20010;-58
2024/04/19 12:11:34;;;;;;;122.00;14.70;;;11.60;86.00;;;;;;5453694;26;20007;-58
2024/04/19 12:13:59;;;;;;;103.38;14.07;;;11.60;86.00;;;;;;5425459;26;20006;-58
2024/04/19 12:16:25;;;;;;;99.18;11.90;;;11.60;86.50;;;;;;5460851;26;20022;-58
2024/04/19 12:18:51;;;;;;;81.88;10.43;;;11.60;86.30;;;;;;5430007;26;20304;-58
2024/04/19 12:21:16;;;;;;;64.30;11.00;;;11.50;86.40;;;;;;5457897;26;20272;-58
2024/04/19 12:23:44;;;;;;;86.43;11.52;;;11.50;86.60;;;;;;5426653;26;20503;-58
2024/04/19 12:26:11;;;;;;;80.47;11.48;;;11.50;86.80;;;;;;5458785;26;20010;-57
2024/04/19 12:28:36;;;;;;;85.30;11.77;;;11.50;86.90;;;;;;5456904;26;20058;-57
2024/04/19 12:31:02;;;;;;;112.68;12.93;;;11.50;87.00;;;;;;5426843;26;20011;-58
2024/04/19 12:33:28;;;;;;;130.45;14.45;;;11.50;86.90;;;;;;5452332;26;20005;-58
2024/04/19 12:35:53;;;;;;;119.47;14.15;;;11.50;87.10;;;;;;5419584;26;20322;-58
2024/04/19 12:38:20;;;;;;;148.05;17.45;;;11.40;87.10;;;;;;5433666;26;19994;-58
2024/04/19 12:40:46;;;;;;;135.52;16.27;;;11.50;87.50;;;;;;5429433;26;20014;-58